Time;durP1;ratioP1;P1;durP2;ratioP2;P2;SDS_P1;SDS_P2;PMS_P1;PMS_P2;Temp;Humidity;BMP_temperature;BMP_pressure;BME280_temperature;BME280_humidity;BME280_pressure;Samples;Min_cycle;Max_cycle;Signal;HPM_P1;HPM_P2
2023/09/14 00:00:45;;;;;;;18.48;4.47;;;;;;;14.07;100.00;100794.75;5072238;28;20524;-70
2023/09/14 00:03:12;;;;;;;20.10;4.25;;;;;;;13.93;100.00;100782.28;5072294;28;20052;-70
2023/09/14 00:05:44;;;;;;;20.98;4.47;;;;;;;13.94;100.00;100778.72;5072553;28;20056;-70
2023/09/14 00:08:12;;;;;;;17.30;4.30;;;;;;;14.19;100.00;100778.31;5057895;28;20559;-70
2023/09/14 00:10:40;;;;;;;21.05;5.25;;;;;;;14.04;100.00;100770.28;5072527;28;20052;-71
2023/09/14 00:13:08;;;;;;;18.90;4.65;;;;;;;14.13;100.00;100770.72;5058424;28;20044;-70
2023/09/14 00:15:36;;;;;;;17.02;4.50;;;;;;;14.15;100.00;100751.28;5067862;28;20417;-70
2023/09/14 00:18:03;;;;;;;16.23;4.60;;;;;;;13.99;100.00;100738.06;5071221;28;20056;-70
2023/09/14 00:20:30;;;;;;;15.63;3.90;;;;;;;14.16;100.00;100742.44;5071811;28;20509;-70
2023/09/14 00:22:58;;;;;;;23.83;4.95;;;;;;;14.00;100.00;100723.97;5072535;28;20055;-70
2023/09/14 00:25:26;;;;;;;24.98;5.20;;;;;;;13.80;100.00;100716.25;5071893;28;20052;-70
2023/09/14 00:27:53;;;;;;;28.90;7.55;;;;;;;13.85;100.00;100715.09;5071149;28;20211;-71
2023/09/14 00:30:21;;;;;;;26.48;6.68;;;;;;;13.95;100.00;100718.13;5072150;28;20659;-70
2023/09/14 00:32:50;;;;;;;18.77;5.40;;;;;;;13.85;100.00;100704.56;5071235;28;20052;-70
2023/09/14 00:35:19;;;;;;;26.20;6.47;;;;;;;13.77;100.00;100695.38;5055660;28;20059;-71
2023/09/14 00:37:46;;;;;;;23.30;5.32;;;;;;;13.86;100.00;100702.78;5071737;28;20054;-70
2023/09/14 00:40:15;;;;;;;21.63;6.32;;;;;;;13.82;100.00;100707.34;5071574;28;20091;-71
2023/09/14 00:42:46;;;;;;;20.55;5.22;;;;;;;13.83;100.00;100705.59;5071517;28;20053;-70
2023/09/14 00:45:15;;;;;;;25.15;5.10;;;;;;;13.88;100.00;100700.06;5069426;28;20106;-70
2023/09/14 00:47:50;;;;;;;20.33;5.95;;;;;;;13.79;100.00;100683.84;5067235;28;20056;-70
2023/09/14 00:50:21;;;;;;;19.50;5.78;;;;;;;13.73;100.00;100678.88;5069762;28;20048;-71
2023/09/14 00:52:55;;;;;;;18.60;5.30;;;;;;;13.88;100.00;100697.44;5072376;28;20494;-70
2023/09/14 00:55:23;;;;;;;18.50;5.10;;;;;;;13.87;100.00;100678.16;5071475;28;20305;-70
2023/09/14 00:57:51;;;;;;;23.20;6.05;;;;;;;13.88;100.00;100679.00;5070287;28;20044;-70
2023/09/14 01:00:18;;;;;;;22.65;6.13;;;;;;;13.87;100.00;100670.28;5071470;28;20049;-71
2023/09/14 01:02:46;;;;;;;17.48;5.28;;;;;;;14.00;100.00;100652.03;5070726;28;20049;-70
2023/09/14 01:05:13;;;;;;;18.08;4.60;;;;;;;13.84;100.00;100676.53;5071377;28;20052;-71
2023/09/14 01:07:40;;;;;;;27.52;5.75;;;;;;;14.04;100.00;100657.06;5069942;28;20052;-71
2023/09/14 01:10:10;;;;;;;19.17;5.10;;;;;;;13.76;100.00;100633.16;5071149;28;20045;-71
2023/09/14 01:12:37;;;;;;;19.90;6.63;;;;;;;13.73;100.00;100631.53;5087152;28;20051;-71
2023/09/14 01:15:09;;;;;;;23.85;6.20;;;;;;;13.88;100.00;100645.63;5071164;28;20059;-71
2023/09/14 01:17:57;;;;;;;25.92;6.53;;;;;;;13.96;100.00;100646.09;5070510;28;20503;-71
2023/09/14 01:21:02;;;;;;;22.45;6.20;;;;;;;14.08;100.00;100634.06;5054143;28;20049;-71
2023/09/14 01:23:54;;;;;;;20.95;5.82;;;;;;;14.22;100.00;100617.53;5070375;28;20083;-71
2023/09/14 01:26:22;;;;;;;15.45;5.18;;;;;;;14.53;100.00;100627.19;5068139;28;20063;-71
2023/09/14 01:28:48;;;;;;;23.33;5.95;;;;;;;14.24;100.00;100628.81;5057664;28;20437;-71
2023/09/14 01:31:16;;;;;;;26.25;6.18;;;;;;;14.26;100.00;100628.75;5070658;28;20090;-71
2023/09/14 01:33:43;;;;;;;21.85;5.68;;;;;;;14.24;100.00;100611.22;5071096;28;20147;-70
2023/09/14 01:36:28;;;;;;;25.48;5.45;;;;;;;14.39;100.00;100617.41;5070232;28;20048;-71
2023/09/14 01:38:55;;;;;;;21.45;5.70;;;;;;;14.43;100.00;100603.16;5070187;28;20135;-71
2023/09/14 01:41:22;;;;;;;21.17;5.80;;;;;;;14.41;100.00;100605.03;5070844;28;20051;-71
2023/09/14 01:43:53;;;;;;;18.05;5.45;;;;;;;14.64;100.00;100588.91;5070360;28;20044;-71
2023/09/14 01:46:20;;;;;;;26.40;6.95;;;;;;;14.43;100.00;100579.47;5069930;28;20487;-71
2023/09/14 01:48:47;;;;;;;16.85;4.82;;;;;;;14.54;100.00;100572.75;5070705;28;20098;-70
2023/09/14 01:51:14;;;;;;;20.27;5.00;;;;;;;14.55;100.00;100590.22;5056714;28;20252;-71
2023/09/14 01:53:41;;;;;;;20.25;6.57;;;;;;;14.43;100.00;100586.53;5071128;28;20343;-71
2023/09/14 01:56:07;;;;;;;15.18;4.68;;;;;;;14.63;100.00;100582.78;5068106;28;20159;-71
2023/09/14 01:58:34;;;;;;;18.13;5.50;;;;;;;14.32;100.00;100562.56;5069747;28;20052;-71
2023/09/14 02:01:02;;;;;;;24.25;4.88;;;;;;;14.75;100.00;100594.38;5069722;28;20049;-71
2023/09/14 02:03:29;;;;;;;14.95;4.18;;;;;;;14.72;100.00;100595.44;5065623;28;20048;-71
2023/09/14 02:06:01;;;;;;;18.08;5.15;;;;;;;14.75;100.00;100608.44;5051703;28;20441;-71
2023/09/14 02:08:30;;;;;;;12.38;4.20;;;;;;;14.79;100.00;100601.19;5069159;28;20152;-71
2023/09/14 02:10:58;;;;;;;19.90;5.15;;;;;;;14.52;100.00;100566.69;5070071;28;20071;-71
2023/09/14 02:13:27;;;;;;;17.25;4.57;;;;;;;14.93;100.00;100603.88;5069494;28;20102;-71
2023/09/14 02:15:54;;;;;;;15.90;4.55;;;;;;;14.80;100.00;100582.66;5057761;28;20053;-70
2023/09/14 02:18:20;;;;;;;12.70;3.90;;;;;;;14.73;100.00;100568.16;5070359;28;20413;-71
2023/09/14 02:20:47;;;;;;;13.90;5.22;;;;;;;14.72;100.00;100576.13;5074682;28;20399;-71
2023/09/14 02:23:17;;;;;;;17.63;4.78;;;;;;;14.95;100.00;100577.44;5066180;28;20417;-71
2023/09/14 02:25:45;;;;;;;19.05;4.38;;;;;;;14.86;100.00;100578.81;5070456;28;20056;-71
2023/09/14 02:28:13;;;;;;;19.17;5.25;;;;;;;14.83;100.00;100571.09;5068876;28;20060;-71
2023/09/14 02:30:41;;;;;;;14.30;4.38;;;;;;;14.84;100.00;100587.75;5069849;28;20056;-71
2023/09/14 02:33:08;;;;;;;9.75;3.10;;;;;;;15.02;100.00;100576.16;5055681;28;20057;-71
2023/09/14 02:35:36;;;;;;;11.60;3.30;;;;;;;14.90;100.00;100561.03;5068142;28;20410;-71
2023/09/14 02:38:03;;;;;;;22.73;4.68;;;;;;;14.72;100.00;100544.53;5068648;28;20055;-71
2023/09/14 02:40:30;;;;;;;16.48;4.47;;;;;;;14.93;100.00;100559.06;5069694;28;20136;-71
2023/09/14 02:42:58;;;;;;;14.32;3.45;;;;;;;14.74;100.00;100555.81;5061896;28;20052;-71
2023/09/14 02:45:24;;;;;;;15.43;3.83;;;;;;;14.80;100.00;100555.44;5075556;28;20044;-71
2023/09/14 02:47:51;;;;;;;13.95;3.95;;;;;;;14.76;100.00;100562.69;5059823;28;20091;-71
2023/09/14 02:50:18;;;;;;;10.77;3.40;;;;;;;14.77;100.00;100538.03;5060523;28;20453;-71
2023/09/14 02:52:45;;;;;;;11.63;3.17;;;;;;;14.73;100.00;100551.47;5064897;28;20049;-71
2023/09/14 02:55:12;;;;;;;12.68;3.67;;;;;;;14.84;100.00;100562.25;5061265;28;20067;-71
2023/09/14 02:57:39;;;;;;;14.75;3.65;;;;;;;14.75;100.00;100555.72;5066097;28;20094;-71
2023/09/14 03:00:07;;;;;;;19.23;4.35;;;;;;;14.68;100.00;100540.34;5069139;28;20571;-71
2023/09/14 03:02:34;;;;;;;10.57;3.00;;;;;;;14.84;100.00;100542.94;5068719;28;20494;-71
2023/09/14 03:05:01;;;;;;;17.42;3.20;;;;;;;14.80;100.00;100531.72;5068747;28;20052;-71
2023/09/14 03:07:28;;;;;;;13.68;2.65;;;;;;;14.95;100.00;100530.00;5067357;28;20476;-71
2023/09/14 03:09:55;;;;;;;10.98;2.28;;;;;;;14.78;100.00;100518.66;5067374;28;20094;-71
2023/09/14 03:12:22;;;;;;;18.20;3.25;;;;;;;14.90;100.00;100516.22;5088220;28;20925;-71
2023/09/14 03:14:48;;;;;;;11.82;3.15;;;;;;;14.67;100.00;100513.16;5073281;28;20685;-70
2023/09/14 03:17:15;;;;;;;13.43;2.40;;;;;;;14.79;100.00;100506.31;5072563;28;20040;-71
2023/09/14 03:19:42;;;;;;;12.48;2.53;;;;;;;14.88;100.00;100507.56;5060169;28;20045;-71
2023/09/14 03:22:09;;;;;;;12.15;2.63;;;;;;;14.94;100.00;100504.56;5062650;28;21258;-71
2023/09/14 03:24:35;;;;;;;16.33;3.35;;;;;;;14.81;100.00;100507.06;5060161;28;20056;-71
2023/09/14 03:27:02;;;;;;;15.05;3.15;;;;;;;14.66;100.00;100510.59;5071591;28;20057;-71
2023/09/14 03:29:29;;;;;;;17.55;3.13;;;;;;;14.82;100.00;100519.34;5072728;28;20052;-71
2023/09/14 03:31:56;;;;;;;14.30;3.20;;;;;;;14.74;100.00;100498.69;5072511;28;20041;-71
2023/09/14 03:34:22;;;;;;;12.60;2.88;;;;;;;14.64;100.00;100497.50;5072567;28;20079;-71
2023/09/14 03:36:49;;;;;;;12.30;3.15;;;;;;;14.49;100.00;100480.78;5071519;28;20044;-71
2023/09/14 03:39:16;;;;;;;16.58;3.17;;;;;;;14.67;100.00;100499.13;5072512;28;20433;-71
2023/09/14 03:41:43;;;;;;;8.40;2.17;;;;;;;14.63;100.00;100484.44;5073009;28;20052;-70
2023/09/14 03:44:09;;;;;;;12.35;2.63;;;;;;;14.66;100.00;100476.34;5072479;28;20059;-70
2023/09/14 03:46:36;;;;;;;12.68;2.63;;;;;;;14.63;100.00;100460.75;5071663;28;20052;-71
2023/09/14 03:49:06;;;;;;;16.63;2.47;;;;;;;14.53;100.00;100477.03;5072852;28;20536;-70
2023/09/14 03:51:33;;;;;;;16.08;3.13;;;;;;;14.70;100.00;100483.16;5072738;28;20049;-70
2023/09/14 03:54:00;;;;;;;9.80;1.83;;;;;;;14.74;100.00;100482.03;5072926;28;20155;-71
2023/09/14 03:56:27;;;;;;;13.18;2.45;;;;;;;14.69;100.00;100494.63;5068569;28;20463;-71
2023/09/14 03:58:54;;;;;;;8.50;1.60;;;;;;;14.72;100.00;100491.81;5065300;28;20072;-71
2023/09/14 04:01:21;;;;;;;8.65;2.03;;;;;;;14.60;100.00;100496.84;5071563;28;20049;-71
2023/09/14 04:03:48;;;;;;;6.43;1.58;;;;;;;14.61;100.00;100498.56;5087128;28;20056;-71
2023/09/14 04:06:15;;;;;;;6.60;1.77;;;;;;;14.68;100.00;100495.53;5071576;28;20048;-71
2023/09/14 04:08:42;;;;;;;6.93;1.60;;;;;;;14.78;100.00;100505.50;5071463;28;20064;-71
2023/09/14 04:11:10;;;;;;;8.27;1.50;;;;;;;14.60;100.00;100490.72;5072314;28;20462;-70
2023/09/14 04:13:37;;;;;;;8.15;1.65;;;;;;;14.74;100.00;100511.00;5071155;28;20105;-70
2023/09/14 04:16:05;;;;;;;5.25;1.40;;;;;;;14.78;100.00;100518.66;5069547;28;20057;-70
2023/09/14 04:18:37;;;;;;;4.60;1.20;;;;;;;14.97;100.00;100522.84;5070047;28;20048;-70
2023/09/14 04:21:07;;;;;;;7.15;1.42;;;;;;;14.75;100.00;100502.16;5071031;28;20048;-70
2023/09/14 04:23:34;;;;;;;7.40;1.80;;;;;;;14.51;100.00;100517.59;5070660;28;20048;-70
2023/09/14 04:26:03;;;;;;;7.70;1.60;;;;;;;14.49;100.00;100506.28;5068140;28;20067;-70
2023/09/14 04:28:30;;;;;;;7.85;2.05;;;;;;;14.58;100.00;100500.53;5070080;28;20053;-71
2023/09/14 04:31:01;;;;;;;7.55;1.67;;;;;;;14.66;100.00;100507.97;5069924;28;20058;-71
2023/09/14 04:33:29;;;;;;;9.25;2.08;;;;;;;14.69;100.00;100513.06;5071003;28;20110;-71
2023/09/14 04:35:58;;;;;;;7.70;1.50;;;;;;;14.51;100.00;100514.94;5062004;28;20059;-70
2023/09/14 04:38:24;;;;;;;6.68;1.50;;;;;;;14.68;100.00;100516.63;5069284;28;20486;-71
2023/09/14 04:40:51;;;;;;;6.90;1.70;;;;;;;14.52;100.00;100532.44;5070378;28;20070;-70
2023/09/14 04:43:18;;;;;;;5.50;1.30;;;;;;;14.53;100.00;100519.19;5070251;28;20502;-71
2023/09/14 04:45:46;;;;;;;6.47;1.48;;;;;;;14.49;100.00;100517.66;5069850;28;20056;-71
2023/09/14 04:48:13;;;;;;;7.05;1.50;;;;;;;14.24;100.00;100520.84;5060343;28;20076;-70
2023/09/14 04:50:40;;;;;;;7.15;1.50;;;;;;;13.84;100.00;100444.94;5085691;28;20048;-70
2023/09/14 04:53:07;;;;;;;6.80;1.63;;;;;;;14.35;100.00;100521.09;5070544;28;20135;-70
2023/09/14 04:55:34;;;;;;;7.85;1.45;;;;;;;14.41;100.00;100520.75;5085634;28;20056;-71
2023/09/14 04:58:00;;;;;;;8.55;2.25;;;;;;;14.23;100.00;100508.63;5057431;28;20048;-70
2023/09/14 05:00:27;;;;;;;5.65;1.40;;;;;;;14.08;100.00;100497.16;5069896;28;20059;-72
2023/09/14 05:02:54;;;;;;;7.57;1.75;;;;;;;14.16;100.00;100497.56;5069636;28;20542;-71
2023/09/14 05:05:21;;;;;;;9.13;1.65;;;;;;;14.00;100.00;100521.28;5067441;28;20056;-71
2023/09/14 05:07:47;;;;;;;7.90;1.95;;;;;;;14.03;100.00;100526.38;5084553;28;20118;-71
2023/09/14 05:10:16;;;;;;;7.32;1.60;;;;;;;14.01;100.00;100530.88;5064624;28;20103;-70
2023/09/14 05:12:43;;;;;;;3.77;1.10;;;;;;;14.09;100.00;100525.19;5021671;28;1206632;-71
2023/09/14 05:15:09;;;;;;;5.25;1.30;;;;;;;14.05;100.00;100532.41;5071350;28;20048;-70
2023/09/14 05:17:36;;;;;;;6.13;1.77;;;;;;;14.14;100.00;100528.41;5069803;28;20145;-71
2023/09/14 05:20:08;;;;;;;6.65;1.52;;;;;;;14.02;100.00;100535.22;5070875;28;20095;-71
2023/09/14 05:22:35;;;;;;;5.28;1.20;;;;;;;14.11;100.00;100533.00;5070387;28;20476;-71
2023/09/14 05:25:03;;;;;;;4.57;1.27;;;;;;;14.05;100.00;100547.34;5071013;28;20553;-71
2023/09/14 05:27:35;;;;;;;5.07;1.20;;;;;;;14.15;100.00;100539.81;5063864;28;20059;-71
2023/09/14 05:30:02;;;;;;;4.03;1.15;;;;;;;14.10;100.00;100549.75;5070229;28;20064;-71
2023/09/14 05:32:29;;;;;;;4.18;1.10;;;;;;;14.03;100.00;100550.06;5059732;28;20048;-70
2023/09/14 05:34:56;;;;;;;5.45;1.23;;;;;;;13.87;100.00;100565.00;5064636;28;20044;-70
2023/09/14 05:37:22;;;;;;;4.22;1.10;;;;;;;13.99;100.00;100564.34;5058402;28;20053;-70
2023/09/14 05:39:49;;;;;;;6.07;1.50;;;;;;;13.89;100.00;100546.50;5069403;28;20147;-69
2023/09/14 05:42:16;;;;;;;3.33;1.10;;;;;;;13.99;100.00;100563.50;5056459;28;20053;-70
2023/09/14 05:44:43;;;;;;;5.03;1.42;;;;;;;14.00;100.00;100560.75;5058287;28;20478;-71
2023/09/14 05:47:10;;;;;;;4.70;1.25;;;;;;;14.03;100.00;100570.28;5061975;28;20057;-71
2023/09/14 05:49:37;;;;;;;4.25;1.15;;;;;;;13.78;100.00;100552.34;5055779;28;20048;-70
2023/09/14 05:52:04;;;;;;;4.35;1.25;;;;;;;13.95;100.00;100565.44;5063456;28;20090;-70
2023/09/14 05:54:30;;;;;;;5.68;1.77;;;;;;;13.86;100.00;100568.56;5061393;28;20053;-71
2023/09/14 05:56:57;;;;;;;3.17;1.02;;;;;;;13.86;100.00;100558.91;5059549;28;20072;-71
2023/09/14 05:59:24;;;;;;;7.32;1.15;;;;;;;13.89;100.00;100555.25;5068914;28;20045;-71
2023/09/14 06:01:58;;;;;;;4.75;1.10;;;;;;;13.72;100.00;100563.19;5057090;28;20048;-70
2023/09/14 06:04:25;;;;;;;5.50;1.23;;;;;;;13.80;100.00;100572.38;5074140;28;20055;-70
2023/09/14 06:06:52;;;;;;;6.55;1.20;;;;;;;13.75;100.00;100566.50;5058880;28;20502;-71
2023/09/14 06:09:19;;;;;;;5.07;1.30;;;;;;;13.79;100.00;100583.84;5064994;28;20531;-70
2023/09/14 06:11:45;;;;;;;3.72;1.10;;;;;;;13.82;100.00;100602.09;5066111;28;20394;-71
2023/09/14 06:14:12;;;;;;;6.85;1.60;;;;;;;13.73;100.00;100607.84;5050174;28;20053;-71
2023/09/14 06:16:39;;;;;;;6.43;1.50;;;;;;;13.77;100.00;100612.00;5062952;28;20045;-71
2023/09/14 06:19:05;;;;;;;3.08;1.00;;;;;;;13.72;100.00;100587.72;5065673;28;20081;-71
2023/09/14 06:21:33;;;;;;;5.25;1.10;;;;;;;13.97;100.00;100605.69;5066383;28;20048;-71
2023/09/14 06:24:00;;;;;;;5.10;1.13;;;;;;;13.95;100.00;100606.69;5049897;28;20817;-71
2023/09/14 06:26:28;;;;;;;8.45;1.45;;;;;;;13.76;100.00;100615.56;5059516;28;20059;-71
2023/09/14 06:28:55;;;;;;;5.80;1.52;;;;;;;13.87;100.00;100609.75;5061694;28;20141;-71
2023/09/14 06:31:25;;;;;;;6.82;1.65;;;;;;;13.90;100.00;100599.06;5052076;28;20044;-71
2023/09/14 06:33:52;;;;;;;7.82;1.30;;;;;;;13.78;100.00;100597.94;5052599;28;20044;-71
2023/09/14 06:36:19;;;;;;;8.23;1.67;;;;;;;13.70;100.00;100597.47;5053116;28;20052;-70
2023/09/14 06:38:47;;;;;;;6.13;1.27;;;;;;;13.70;100.00;100589.56;5051340;28;20045;-70
2023/09/14 06:41:15;;;;;;;8.13;1.40;;;;;;;13.54;100.00;100579.00;5050494;28;20457;-70
2023/09/14 06:43:44;;;;;;;5.25;1.38;;;;;;;13.85;100.00;100608.97;5054966;28;20057;-70
2023/09/14 06:46:12;;;;;;;6.50;1.95;;;;;;;13.70;100.00;100602.72;5081985;28;20150;-71
2023/09/14 06:48:40;;;;;;;2.75;1.02;;;;;;;13.93;100.00;100603.28;5053541;28;20198;-71
2023/09/14 06:51:06;;;;;;;5.28;1.40;;;;;;;13.75;100.00;100603.34;5052702;28;20086;-71
2023/09/14 06:53:33;;;;;;;6.20;1.17;;;;;;;14.47;100.00;100590.66;5061135;28;20059;-71
2023/09/14 06:56:07;;;;;;;7.20;1.25;;;;;;;15.12;100.00;100594.91;5056992;28;20406;-72
2023/09/14 06:58:34;;;;;;;5.43;1.23;;;;;;;15.90;100.00;100589.34;5060283;28;20049;-72
2023/09/14 07:01:04;;;;;;;7.45;1.60;;;;;;;16.02;100.00;100585.94;5066039;28;20131;-71
2023/09/14 07:03:32;;;;;;;4.80;1.17;;;;;;;16.16;100.00;100582.44;5062217;28;20056;-71
2023/09/14 07:06:01;;;;;;;8.35;1.20;;;;;;;16.28;100.00;100586.94;5060127;28;20133;-71
2023/09/14 07:08:28;;;;;;;3.25;1.17;;;;;;;16.60;100.00;100567.31;5047853;28;20048;-69
2023/09/14 07:10:55;;;;;;;5.90;1.50;;;;;;;16.96;100.00;100563.19;5064493;28;20052;-70
2023/09/14 07:13:24;;;;;;;5.75;1.35;;;;;;;17.29;100.00;100580.41;5063500;28;20070;-69
2023/09/14 07:15:51;;;;;;;5.80;1.10;;;;;;;17.41;100.00;100571.63;5049008;28;20113;-68
2023/09/14 07:18:27;;;;;;;4.03;0.80;;;;;;;17.44;100.00;100566.97;5053064;28;20396;-69
2023/09/14 07:20:58;;;;;;;6.90;1.20;;;;;;;17.41;100.00;100564.50;5049823;28;20518;-69
2023/09/14 07:23:25;;;;;;;5.88;1.20;;;;;;;17.89;100.00;100566.50;5050618;28;20053;-69
2023/09/14 07:25:52;;;;;;;9.38;1.40;;;;;;;17.70;100.00;100574.03;5053740;28;20410;-69
2023/09/14 07:28:19;;;;;;;7.82;1.38;;;;;;;17.78;100.00;100569.91;5065283;28;20110;-69
2023/09/14 07:30:47;;;;;;;5.20;0.98;;;;;;;17.54;100.00;100577.75;5082618;28;20132;-69
2023/09/14 07:33:15;;;;;;;6.93;1.20;;;;;;;17.70;100.00;100580.16;5056279;28;20102;-68
2023/09/14 07:35:42;;;;;;;3.80;0.88;;;;;;;17.93;100.00;100580.38;5058050;28;20514;-69
2023/09/14 07:38:12;;;;;;;3.85;0.88;;;;;;;18.31;100.00;100593.53;5060680;28;20076;-69
2023/09/14 07:40:40;;;;;;;4.75;1.02;;;;;;;18.64;100.00;100589.38;5059923;28;20097;-69
2023/09/14 07:43:13;;;;;;;4.78;0.90;;;;;;;18.63;100.00;100600.94;5064211;28;20048;-69
2023/09/14 07:45:40;;;;;;;3.85;0.80;;;;;;;18.81;100.00;100612.00;5054157;28;20137;-69
2023/09/14 07:48:07;;;;;;;3.85;1.00;;;;;;;18.90;100.00;100610.50;5059694;28;20128;-68
2023/09/14 07:50:36;;;;;;;4.90;0.95;;;;;;;18.44;100.00;100605.91;5065539;28;20406;-69
2023/09/14 07:53:03;;;;;;;3.10;0.73;;;;;;;18.43;100.00;100613.00;5060912;28;20091;-69
2023/09/14 07:55:30;;;;;;;7.47;1.30;;;;;;;18.32;100.00;100618.22;5060284;28;20062;-69
2023/09/14 07:58:01;;;;;;;4.25;0.90;;;;;;;18.57;100.00;100622.59;5068516;28;20561;-69
2023/09/14 08:00:28;;;;;;;5.57;1.13;;;;;;;18.65;100.00;100617.59;5066897;28;20049;-69
2023/09/14 08:02:55;;;;;;;5.20;1.05;;;;;;;18.72;100.00;100616.19;5072695;28;20139;-70
2023/09/14 08:05:22;;;;;;;5.88;1.10;;;;;;;18.92;100.00;100612.06;5073234;28;20490;-69
2023/09/14 08:07:48;;;;;;;5.35;1.20;;;;;;;18.59;100.00;100615.38;5070481;28;20052;-69
2023/09/14 08:10:15;;;;;;;5.47;1.10;;;;;;;18.73;100.00;100619.66;5068573;28;20048;-69
2023/09/14 08:12:42;;;;;;;5.53;1.20;;;;;;;18.78;100.00;100618.34;5071860;28;20052;-69
2023/09/14 08:15:09;;;;;;;5.18;1.00;;;;;;;19.18;100.00;100622.53;5072688;28;20083;-69
2023/09/14 08:17:36;;;;;;;4.13;0.88;;;;;;;18.83;100.00;100612.75;5070466;28;20131;-69
2023/09/14 08:20:04;;;;;;;4.57;1.08;;;;;;;18.85;100.00;100618.78;5072669;28;20499;-69
2023/09/14 08:22:31;;;;;;;3.65;1.05;;;;;;;18.89;100.00;100619.41;5072522;28;20044;-69
2023/09/14 08:25:02;;;;;;;4.50;1.10;;;;;;;18.80;100.00;100618.25;5059986;28;20056;-69
2023/09/14 08:27:28;;;;;;;4.28;0.85;;;;;;;19.23;100.00;100622.19;5070387;28;20466;-69
2023/09/14 08:29:55;;;;;;;4.43;1.05;;;;;;;18.46;100.00;100619.88;5071328;28;20048;-69
2023/09/14 08:32:23;;;;;;;6.93;1.20;;;;;;;18.06;100.00;100610.38;5072602;28;20045;-69
2023/09/14 08:34:50;;;;;;;3.00;0.90;;;;;;;18.20;100.00;100622.59;5072822;28;20076;-69
2023/09/14 08:37:17;;;;;;;5.45;1.10;;;;;;;18.66;100.00;100619.28;5068123;28;20071;-68
2023/09/14 08:39:44;;;;;;;3.50;0.95;;;;;;;18.76;100.00;100619.44;5069769;28;20050;-68
2023/09/14 08:42:13;;;;;;;7.88;1.40;;;;;;;18.43;100.00;100623.59;5066565;28;20053;-68
2023/09/14 08:44:41;;;;;;;4.20;1.00;;;;;;;18.12;100.00;100617.84;5071660;28;20055;-69
2023/09/14 08:47:10;;;;;;;5.15;0.90;;;;;;;17.90;100.00;100620.31;5070838;28;20052;-69
2023/09/14 08:49:38;;;;;;;6.22;1.10;;;;;;;17.87;100.00;100628.50;5066011;28;20076;-69
2023/09/14 08:52:07;;;;;;;3.22;0.80;;;;;;;17.64;100.00;100593.84;5065528;28;20036;-68
2023/09/14 08:54:34;;;;;;;5.78;1.30;;;;;;;18.15;100.00;100608.81;5072143;28;20057;-68
2023/09/14 08:57:04;;;;;;;8.07;1.20;;;;;;;17.97;100.00;100621.59;5062855;28;20049;-68
2023/09/14 08:59:31;;;;;;;4.85;1.05;;;;;;;18.15;100.00;100632.69;5067260;28;20056;-69
2023/09/14 09:02:00;;;;;;;4.88;1.20;;;;;;;17.97;100.00;100617.16;5071682;28;20053;-68
2023/09/14 09:04:27;;;;;;;3.60;0.85;;;;;;;17.96;100.00;100628.69;5071563;28;20049;-69
2023/09/14 09:06:54;;;;;;;3.40;1.10;;;;;;;18.35;100.00;100634.75;5069880;28;20060;-69
2023/09/14 09:09:23;;;;;;;3.38;0.90;;;;;;;18.11;100.00;100634.69;5070222;28;20098;-69
2023/09/14 09:11:50;;;;;;;4.18;1.17;;;;;;;18.13;100.00;100635.47;5071414;28;20068;-69
2023/09/14 09:14:17;;;;;;;6.45;1.50;;;;;;;18.16;100.00;100640.53;5065393;28;20436;-69
2023/09/14 09:16:43;;;;;;;5.20;1.10;;;;;;;18.20;100.00;100635.84;5062544;28;20084;-69
2023/09/14 09:19:10;;;;;;;7.63;1.20;;;;;;;17.96;100.00;100649.88;5071383;28;20441;-68
2023/09/14 09:21:41;;;;;;;4.82;1.13;;;;;;;18.09;100.00;100649.03;5070541;28;20501;-69
2023/09/14 09:24:08;;;;;;;4.47;1.23;;;;;;;17.94;100.00;100643.00;5070940;28;20041;-69
2023/09/14 09:26:36;;;;;;;7.20;1.20;;;;;;;18.09;100.00;100647.22;5069290;28;20044;-69
2023/09/14 09:29:18;;;;;;;7.00;1.10;;;;;;;18.11;100.00;100653.25;5070404;28;20044;-69
2023/09/14 09:31:46;;;;;;;6.35;1.10;;;;;;;18.19;100.00;100656.22;5071561;28;20052;-68
2023/09/14 09:34:14;;;;;;;5.80;1.30;;;;;;;17.82;100.00;100661.41;5057747;28;20048;-68
2023/09/14 09:36:41;;;;;;;5.03;1.17;;;;;;;17.86;100.00;100661.22;5066316;28;20123;-69
2023/09/14 09:39:11;;;;;;;7.55;1.20;;;;;;;17.79;100.00;100672.19;5082038;28;20056;-69
2023/09/14 09:41:39;;;;;;;6.72;1.33;;;;;;;18.12;100.00;100662.06;5070504;28;20052;-68
2023/09/14 09:44:09;;;;;;;5.45;1.40;;;;;;;18.12;100.00;100670.00;5070354;28;20067;-69
2023/09/14 09:46:36;;;;;;;6.15;1.27;;;;;;;18.26;100.00;100671.69;5068314;28;20052;-69
2023/09/14 09:49:17;;;;;;;5.30;1.45;;;;;;;18.12;100.00;100677.97;5071368;28;20048;-68
2023/09/14 09:51:51;;;;;;;5.45;1.20;;;;;;;18.25;100.00;100684.06;5071142;28;20075;-68
2023/09/14 09:54:24;;;;;;;6.75;1.40;;;;;;;18.12;100.00;100659.41;5069959;28;20052;-68
2023/09/14 09:56:54;;;;;;;;;;;;;;;18.09;100.00;100678.16;5069730;28;20049;-68
2023/09/14 09:59:23;;;;;;;5.28;1.42;;;;;;;18.32;100.00;100679.19;5069813;28;20538;-68
2023/09/14 10:01:50;;;;;;;5.07;1.42;;;;;;;18.26;100.00;100682.28;5070302;28;20159;-68
2023/09/14 10:04:17;;;;;;;6.72;1.27;;;;;;;18.29;100.00;100656.41;5062816;28;20044;-68
2023/09/14 10:06:52;;;;;;;5.65;1.50;;;;;;;18.31;100.00;100672.19;5067193;28;20049;-69
2023/09/14 10:09:19;;;;;;;4.50;1.40;;;;;;;18.28;100.00;100690.97;5070561;28;20059;-69
2023/09/14 10:11:49;;;;;;;7.00;1.38;;;;;;;18.71;100.00;100691.38;5070387;28;20114;-68
2023/09/14 10:14:19;;;;;;;6.22;1.02;;;;;;;18.56;100.00;100685.38;5070572;28;20080;-68
2023/09/14 10:16:48;;;;;;;5.60;1.30;;;;;;;18.69;100.00;100684.50;5069108;28;20049;-69
2023/09/14 10:19:15;;;;;;;4.82;1.00;;;;;;;18.66;100.00;100684.72;5069814;28;20059;-69
2023/09/14 10:21:44;;;;;;;6.93;1.45;;;;;;;18.79;100.00;100681.06;5070217;28;20052;-69
2023/09/14 10:24:12;;;;;;;5.28;1.10;;;;;;;18.45;100.00;100695.06;5070572;28;20504;-69
2023/09/14 10:26:40;;;;;;;3.40;1.20;;;;;;;18.33;100.00;100686.19;5068233;28;20056;-69
2023/09/14 10:29:09;;;;;;;6.50;1.40;;;;;;;18.22;100.00;100689.59;5069783;28;20055;-69
2023/09/14 10:31:36;;;;;;;5.43;1.13;;;;;;;17.93;100.00;100667.78;5070826;28;20057;-69
2023/09/14 10:34:03;;;;;;;6.50;1.25;;;;;;;17.86;100.00;100677.97;5066793;28;20474;-69
2023/09/14 10:36:32;;;;;;;13.27;1.45;;;;;;;17.73;100.00;100664.69;5069295;28;20136;-70
2023/09/14 10:39:00;;;;;;;11.95;1.67;;;;;;;17.89;100.00;100663.66;5068506;28;20051;-69
2023/09/14 10:41:30;;;;;;;7.20;1.35;;;;;;;18.27;100.00;100673.38;5065522;28;20466;-69
2023/09/14 10:43:57;;;;;;;7.43;1.30;;;;;;;18.44;100.00;100670.38;5059682;28;20067;-69
2023/09/14 10:46:26;;;;;;;8.20;1.23;;;;;;;18.70;100.00;100665.84;5057573;28;20053;-69
2023/09/14 10:48:58;;;;;;;5.55;1.45;;;;;;;19.06;100.00;100666.75;5070471;28;20452;-69
2023/09/14 10:51:26;;;;;;;6.35;1.17;;;;;;;19.29;100.00;100648.28;5070612;28;20470;-68
2023/09/14 10:53:53;;;;;;;6.28;1.10;;;;;;;18.97;100.00;100660.31;5070390;28;20052;-68
2023/09/14 10:56:31;;;;;;;3.50;1.00;;;;;;;19.00;100.00;100659.28;5061340;28;20389;-68
2023/09/14 10:58:59;;;;;;;8.23;1.55;;;;;;;18.56;100.00;100663.34;5069014;28;20055;-68
2023/09/14 11:01:28;;;;;;;6.22;1.10;;;;;;;18.73;100.00;100646.19;5069567;28;20433;-68
2023/09/14 11:04:18;;;;;;;4.15;1.10;;;;;;;18.78;100.00;100660.78;5069594;28;20379;-68
2023/09/14 11:06:51;;;;;;;7.38;1.42;;;;;;;18.96;100.00;100669.25;5065427;28;20086;-68
2023/09/14 11:09:23;;;;;;;6.05;1.35;;;;;;;18.70;100.00;100680.91;5067686;28;20159;-68
2023/09/14 11:11:51;;;;;;;4.32;1.15;;;;;;;18.71;100.00;100675.47;5069518;28;20050;-68
2023/09/14 11:14:23;;;;;;;4.05;1.20;;;;;;;18.88;100.00;100678.75;5068254;28;20048;-69
2023/09/14 11:16:54;;;;;;;5.85;1.13;;;;;;;18.49;100.00;100668.22;5068992;28;20199;-69
2023/09/14 11:19:28;;;;;;;6.90;1.40;;;;;;;18.46;100.00;100664.97;5069331;28;20044;-69